Time;durP1;ratioP1;P1;durP2;ratioP2;P2;SDS_P1;SDS_P2;PMS_P1;PMS_P2;Temp;Humidity;BMP_temperature;BMP_pressure;BME280_temperature;BME280_humidity;BME280_pressure;Samples;Min_cycle;Max_cycle;Signal;HPM_P1;HPM_P2
2021/11/11 00:00:18;;;;;;;37.20;25.43;;;;;;;;;;693852;28;782;-58
2021/11/11 00:00:40;;;;;;;35.95;25.38;;;;;;;;;;693952;28;923;-57
2021/11/11 00:01:00;;;;;;;35.90;24.75;;;;;;;;;;693869;28;845;-58
2021/11/11 00:01:21;;;;;;;38.50;25.20;;;;;;;;;;692497;28;1421;-58
2021/11/11 00:01:41;;;;;;;38.03;24.53;;;;;;;;;;691266;28;987;-58
2021/11/11 00:02:01;;;;;;;36.33;24.17;;;;;;;;;;691272;28;901;-59
2021/11/11 00:02:21;;;;;;;34.63;24.23;;;;;;;;;;691983;28;1374;-59
2021/11/11 00:02:41;;;;;;;34.83;24.20;;;;;;;;;;693689;28;803;-58
2021/11/11 00:03:02;;;;;;;35.73;24.20;;;;;;;;;;693746;28;910;-58
2021/11/11 00:03:22;;;;;;;37.53;24.42;;;;;;;;;;693946;28;1973;-59
2021/11/11 00:03:42;;;;;;;36.63;24.80;;;;;;;;;;693985;28;790;-58
2021/11/11 00:04:03;;;;;;;33.93;24.23;;;;;;;;;;693913;28;832;-59
2021/11/11 00:04:23;;;;;;;36.00;24.33;;;;;;;;;;692808;28;1413;-59
2021/11/11 00:04:43;;;;;;;38.77;24.80;;;;;;;;;;691174;28;868;-56
2021/11/11 00:05:04;;;;;;;38.87;24.87;;;;;;;;;;691162;28;944;-57
2021/11/11 00:05:25;;;;;;;37.13;25.08;;;;;;;;;;691289;28;829;-57
2021/11/11 00:05:45;;;;;;;34.85;24.83;;;;;;;;;;691147;28;844;-56
2021/11/11 00:06:05;;;;;;;35.65;24.83;;;;;;;;;;691295;28;797;-58
2021/11/11 00:06:26;;;;;;;35.50;24.40;;;;;;;;;;692797;28;1382;-57
2021/11/11 00:06:47;;;;;;;34.43;24.03;;;;;;;;;;693515;28;1357;-57
2021/11/11 00:07:07;;;;;;;34.53;24.48;;;;;;;;;;693733;28;1437;-57
2021/11/11 00:07:27;;;;;;;35.88;24.63;;;;;;;;;;691550;28;1286;-57
2021/11/11 00:07:48;;;;;;;37.07;24.50;;;;;;;;;;691211;28;920;-57
2021/11/11 00:08:08;;;;;;;35.23;24.33;;;;;;;;;;691238;28;916;-57
2021/11/11 00:08:28;;;;;;;36.13;24.37;;;;;;;;;;691130;28;942;-57
2021/11/11 00:08:49;;;;;;;38.23;24.67;;;;;;;;;;691168;28;972;-57
2021/11/11 00:09:10;;;;;;;37.80;24.65;;;;;;;;;;691156;28;981;-57
2021/11/11 00:09:31;;;;;;;36.20;24.73;;;;;;;;;;691188;28;867;-57
2021/11/11 00:09:51;;;;;;;34.95;24.83;;;;;;;;;;691174;28;1344;-57
2021/11/11 00:10:12;;;;;;;36.07;24.07;;;;;;;;;;691153;28;983;-57
2021/11/11 00:10:32;;;;;;;36.60;24.70;;;;;;;;;;691111;28;983;-56
2021/11/11 00:10:52;;;;;;;36.03;25.07;;;;;;;;;;691105;28;920;-57
2021/11/11 00:11:13;;;;;;;35.60;24.52;;;;;;;;;;691036;28;968;-56
2021/11/11 00:11:33;;;;;;;34.17;24.33;;;;;;;;;;691265;28;892;-56
2021/11/11 00:11:54;;;;;;;35.77;24.50;;;;;;;;;;691294;28;777;-57
2021/11/11 00:12:14;;;;;;;37.90;24.65;;;;;;;;;;691138;28;1390;-57
2021/11/11 00:12:34;;;;;;;39.53;24.57;;;;;;;;;;693557;28;1350;-56
2021/11/11 00:12:55;;;;;;;38.00;24.38;;;;;;;;;;693506;28;789;-57
2021/11/11 00:13:19;;;;;;;39.08;24.05;;;;;;;;;;693762;28;781;-57
2021/11/11 00:13:39;;;;;;;36.88;24.42;;;;;;;;;;693945;28;873;-57
2021/11/11 00:13:59;;;;;;;36.30;24.57;;;;;;;;;;693860;28;891;-57
2021/11/11 00:14:19;;;;;;;36.00;24.40;;;;;;;;;;693897;28;1012;-57
2021/11/11 00:14:39;;;;;;;38.47;24.97;;;;;;;;;;693935;28;920;-57
2021/11/11 00:15:00;;;;;;;36.60;24.40;;;;;;;;;;693746;28;1047;-57
2021/11/11 00:15:21;;;;;;;33.03;23.52;;;;;;;;;;693984;28;927;-56
2021/11/11 00:15:41;;;;;;;35.20;24.42;;;;;;;;;;693992;28;809;-57
2021/11/11 00:16:02;;;;;;;32.65;24.10;;;;;;;;;;693871;28;899;-57
2021/11/11 00:16:22;;;;;;;36.27;24.40;;;;;;;;;;693862;28;804;-57
2021/11/11 00:16:42;;;;;;;36.90;24.48;;;;;;;;;;693895;28;969;-57
2021/11/11 00:17:03;;;;;;;35.77;24.33;;;;;;;;;;693753;28;1002;-58
2021/11/11 00:17:23;;;;;;;33.57;24.10;;;;;;;;;;693993;28;820;-58
2021/11/11 00:17:43;;;;;;;33.90;23.57;;;;;;;;;;693581;28;1922;-57
2021/11/11 00:18:03;;;;;;;34.63;23.90;;;;;;;;;;693862;28;1364;-57
2021/11/11 00:18:23;;;;;;;36.77;24.33;;;;;;;;;;693150;28;1393;-57
2021/11/11 00:18:44;;;;;;;38.90;24.57;;;;;;;;;;691008;28;988;-57
2021/11/11 00:19:04;;;;;;;38.73;23.93;;;;;;;;;;691135;28;903;-57
2021/11/11 00:19:24;;;;;;;36.60;24.00;;;;;;;;;;691180;28;959;-57
2021/11/11 00:19:44;;;;;;;37.17;24.17;;;;;;;;;;691013;28;1242;-56
2021/11/11 00:20:05;;;;;;;35.50;24.43;;;;;;;;;;691210;28;781;-57
2021/11/11 00:20:27;;;;;;;38.90;24.58;;;;;;;;;;691064;28;1218;-57
2021/11/11 00:20:47;;;;;;;36.30;24.33;;;;;;;;;;691135;28;963;-57
2021/11/11 00:21:08;;;;;;;35.63;24.53;;;;;;;;;;691012;28;1860;-58
2021/11/11 00:21:28;;;;;;;36.67;24.80;;;;;;;;;;691128;28;805;-57
2021/11/11 00:21:48;;;;;;;37.53;25.10;;;;;;;;;;691252;28;789;-57
2021/11/11 00:22:08;;;;;;;40.57;25.53;;;;;;;;;;690823;28;912;-58
2021/11/11 00:22:28;;;;;;;40.43;24.77;;;;;;;;;;691962;28;1303;-57
2021/11/11 00:22:49;;;;;;;38.50;24.23;;;;;;;;;;690645;28;1007;-57
2021/11/11 00:23:09;;;;;;;34.17;24.10;;;;;;;;;;691037;28;781;-58
2021/11/11 00:23:29;;;;;;;35.87;24.30;;;;;;;;;;691101;28;888;-58
2021/11/11 00:23:49;;;;;;;36.00;24.53;;;;;;;;;;691246;28;832;-57
2021/11/11 00:24:09;;;;;;;35.73;24.03;;;;;;;;;;691211;28;1010;-57
2021/11/11 00:24:29;;;;;;;38.40;24.67;;;;;;;;;;691029;28;1011;-57
2021/11/11 00:24:50;;;;;;;38.20;24.13;;;;;;;;;;691179;28;813;-58
2021/11/11 00:25:10;;;;;;;37.60;23.98;;;;;;;;;;691106;28;813;-57
2021/11/11 00:25:31;;;;;;;36.23;24.03;;;;;;;;;;691125;28;856;-58
2021/11/11 00:25:51;;;;;;;35.33;24.97;;;;;;;;;;691258;28;884;-57
2021/11/11 00:26:11;;;;;;;39.30;24.83;;;;;;;;;;691113;28;995;-57
2021/11/11 00:26:31;;;;;;;37.73;24.00;;;;;;;;;;691179;28;868;-57
2021/11/11 00:26:51;;;;;;;36.10;24.20;;;;;;;;;;691176;28;854;-57
2021/11/11 00:27:11;;;;;;;36.13;24.23;;;;;;;;;;691050;28;849;-57
2021/11/11 00:27:32;;;;;;;37.70;25.10;;;;;;;;;;691078;28;932;-57
2021/11/11 00:27:52;;;;;;;38.97;25.30;;;;;;;;;;691182;28;824;-56
2021/11/11 00:28:12;;;;;;;37.30;25.20;;;;;;;;;;691104;28;971;-57
2021/11/11 00:28:32;;;;;;;37.10;24.83;;;;;;;;;;691072;28;983;-58
2021/11/11 00:28:52;;;;;;;36.25;24.38;;;;;;;;;;691149;28;775;-57
2021/11/11 00:29:13;;;;;;;36.40;24.27;;;;;;;;;;691136;28;1139;-57
2021/11/11 00:29:33;;;;;;;37.10;24.83;;;;;;;;;;691086;28;1256;-57
2021/11/11 00:29:53;;;;;;;35.03;24.25;;;;;;;;;;691075;28;982;-56
2021/11/11 00:30:15;;;;;;;34.87;24.10;;;;;;;;;;691251;28;765;-57
2021/11/11 00:30:35;;;;;;;34.60;24.00;;;;;;;;;;691073;28;979;-57
2021/11/11 00:30:55;;;;;;;34.87;24.20;;;;;;;;;;691096;28;797;-56
2021/11/11 00:31:15;;;;;;;34.80;24.43;;;;;;;;;;691073;28;1029;-56
2021/11/11 00:31:35;;;;;;;35.63;24.70;;;;;;;;;;691111;28;947;-57
2021/11/11 00:31:56;;;;;;;37.90;24.93;;;;;;;;;;691079;28;968;-57
2021/11/11 00:32:16;;;;;;;36.25;24.27;;;;;;;;;;691155;28;1468;-57
2021/11/11 00:32:39;;;;;;;37.87;24.80;;;;;;;;;;693209;28;1535;-57
2021/11/11 00:32:59;;;;;;;40.22;24.95;;;;;;;;;;693662;28;909;-57
2021/11/11 00:33:19;;;;;;;38.03;24.73;;;;;;;;;;693907;28;816;-57
2021/11/11 00:33:39;;;;;;;39.77;25.40;;;;;;;;;;693669;28;963;-58
2021/11/11 00:33:59;;;;;;;37.85;24.40;;;;;;;;;;693893;28;797;-57
2021/11/11 00:34:20;;;;;;;34.70;24.27;;;;;;;;;;693943;28;770;-57
2021/11/11 00:34:40;;;;;;;36.10;24.67;;;;;;;;;;693728;28;931;-57
2021/11/11 00:35:00;;;;;;;36.07;24.10;;;;;;;;;;693873;28;1002;-57
2021/11/11 00:35:22;;;;;;;36.30;24.53;;;;;;;;;;693931;28;829;-57
2021/11/11 00:35:43;;;;;;;37.45;24.25;;;;;;;;;;693732;28;797;-57
2021/11/11 00:36:04;;;;;;;36.87;24.73;;;;;;;;;;693866;28;879;-57
2021/11/11 00:36:24;;;;;;;37.88;25.25;;;;;;;;;;692044;28;1496;-58
2021/11/11 00:36:44;;;;;;;37.37;24.57;;;;;;;;;;691082;28;1409;-57
2021/11/11 00:37:04;;;;;;;37.63;25.17;;;;;;;;;;691112;28;972;-56
2021/11/11 00:37:24;;;;;;;38.10;25.13;;;;;;;;;;692919;28;1381;-57
2021/11/11 00:37:45;;;;;;;37.13;24.80;;;;;;;;;;693719;28;1953;-57
2021/11/11 00:38:06;;;;;;;40.35;25.38;;;;;;;;;;693941;28;915;-57
2021/11/11 00:38:26;;;;;;;39.70;25.07;;;;;;;;;;693813;28;981;-57
2021/11/11 00:38:46;;;;;;;36.67;24.90;;;;;;;;;;693829;28;1008;-57
2021/11/11 00:39:06;;;;;;;39.20;25.50;;;;;;;;;;693706;28;964;-58
2021/11/11 00:39:26;;;;;;;40.23;25.07;;;;;;;;;;693829;28;927;-58
2021/11/11 00:39:47;;;;;;;37.23;24.53;;;;;;;;;;693463;28;1520;-58
2021/11/11 00:40:08;;;;;;;38.27;24.50;;;;;;;;;;691132;28;1591;-57
2021/11/11 00:40:29;;;;;;;36.80;24.30;;;;;;;;;;691016;28;1083;-57
2021/11/11 00:40:49;;;;;;;39.38;25.17;;;;;;;;;;691090;28;797;-57
2021/11/11 00:41:14;;;;;;;37.17;24.43;;;;;;;;;;691035;28;869;-57
2021/11/11 00:41:34;;;;;;;35.83;24.77;;;;;;;;;;691143;28;915;-57
2021/11/11 00:41:55;;;;;;;39.33;25.75;;;;;;;;;;690992;28;904;-58
2021/11/11 00:42:17;;;;;;;38.70;24.87;;;;;;;;;;691196;28;1013;-58
2021/11/11 00:42:37;;;;;;;37.88;24.98;;;;;;;;;;693555;28;1344;-58
2021/11/11 00:42:58;;;;;;;38.50;25.00;;;;;;;;;;693373;28;833;-57
2021/11/11 00:43:19;;;;;;;37.83;24.88;;;;;;;;;;693889;28;883;-57
2021/11/11 00:43:40;;;;;;;40.45;25.38;;;;;;;;;;693872;28;812;-57
2021/11/11 00:44:00;;;;;;;40.25;25.42;;;;;;;;;;693707;28;968;-57
2021/11/11 00:44:21;;;;;;;37.37;25.03;;;;;;;;;;693915;28;840;-57
2021/11/11 00:44:41;;;;;;;37.20;24.55;;;;;;;;;;693728;28;800;-57
2021/11/11 00:45:02;;;;;;;39.57;24.93;;;;;;;;;;693855;28;789;-57
2021/11/11 00:45:22;;;;;;;40.33;24.58;;;;;;;;;;693949;28;946;-57
2021/11/11 00:45:42;;;;;;;38.00;25.17;;;;;;;;;;693800;28;820;-57
2021/11/11 00:46:03;;;;;;;37.33;24.42;;;;;;;;;;693781;28;959;-58
2021/11/11 00:46:23;;;;;;;38.47;25.00;;;;;;;;;;693880;28;986;-57
2021/11/11 00:46:43;;;;;;;38.43;25.50;;;;;;;;;;693744;28;935;-57
2021/11/11 00:47:03;;;;;;;38.70;26.00;;;;;;;;;;693864;28;796;-57
2021/11/11 00:47:23;;;;;;;39.22;25.35;;;;;;;;;;693820;28;1200;-56
2021/11/11 00:47:44;;;;;;;39.77;25.00;;;;;;;;;;693739;28;1445;-56
2021/11/11 00:48:06;;;;;;;38.38;25.17;;;;;;;;;;693353;28;1305;-57
2021/11/11 00:48:26;;;;;;;39.80;25.65;;;;;;;;;;693743;28;873;-56
2021/11/11 00:48:46;;;;;;;38.63;25.50;;;;;;;;;;693903;28;894;-57
2021/11/11 00:49:07;;;;;;;36.97;25.43;;;;;;;;;;693841;28;1015;-56
2021/11/11 00:49:27;;;;;;;39.50;25.60;;;;;;;;;;693785;28;801;-57
2021/11/11 00:49:48;;;;;;;37.20;25.40;;;;;;;;;;693876;28;1452;-57
2021/11/11 00:50:09;;;;;;;36.67;25.38;;;;;;;;;;693891;28;899;-58
2021/11/11 00:50:30;;;;;;;40.50;25.95;;;;;;;;;;693658;28;994;-57
2021/11/11 00:50:50;;;;;;;40.83;26.02;;;;;;;;;;693715;28;1863;-57
2021/11/11 00:51:10;;;;;;;38.33;26.00;;;;;;;;;;693891;28;857;-57
2021/11/11 00:51:30;;;;;;;42.00;25.95;;;;;;;;;;693786;28;1035;-57
2021/11/11 00:51:50;;;;;;;39.10;25.33;;;;;;;;;;693824;28;967;-57
2021/11/11 00:52:11;;;;;;;40.10;25.43;;;;;;;;;;693876;28;833;-57
2021/11/11 00:52:31;;;;;;;41.43;26.33;;;;;;;;;;692260;28;1417;-58
2021/11/11 00:52:52;;;;;;;40.78;25.92;;;;;;;;;;690656;28;1397;-57
2021/11/11 00:53:12;;;;;;;38.53;25.57;;;;;;;;;;691005;28;916;-57
2021/11/11 00:53:32;;;;;;;39.00;25.53;;;;;;;;;;691175;28;1030;-58
2021/11/11 00:53:52;;;;;;;40.75;25.40;;;;;;;;;;691107;28;841;-58
2021/11/11 00:54:12;;;;;;;37.63;25.50;;;;;;;;;;691024;28;1045;-57
2021/11/11 00:54:32;;;;;;;36.73;25.63;;;;;;;;;;691074;28;758;-57
2021/11/11 00:54:53;;;;;;;39.20;25.83;;;;;;;;;;691149;28;884;-57
2021/11/11 00:55:13;;;;;;;38.53;25.98;;;;;;;;;;691017;28;860;-57
2021/11/11 00:55:34;;;;;;;38.70;25.60;;;;;;;;;;691140;28;856;-57
2021/11/11 00:55:54;;;;;;;37.08;25.42;;;;;;;;;;691212;28;805;-57
2021/11/11 00:56:14;;;;;;;38.90;25.70;;;;;;;;;;690999;28;830;-57
2021/11/11 00:56:35;;;;;;;38.87;25.87;;;;;;;;;;690943;28;1432;-57
2021/11/11 00:56:55;;;;;;;38.87;26.17;;;;;;;;;;691008;28;1071;-57
2021/11/11 00:57:15;;;;;;;38.73;25.57;;;;;;;;;;691070;28;868;-57
2021/11/11 00:57:36;;;;;;;43.73;25.83;;;;;;;;;;691154;28;984;-57
2021/11/11 00:57:56;;;;;;;40.72;25.65;;;;;;;;;;691043;28;1007;-57
2021/11/11 00:58:16;;;;;;;41.10;26.00;;;;;;;;;;693654;28;1357;-57
2021/11/11 00:58:36;;;;;;;41.17;25.80;;;;;;;;;;693797;28;887;-57
2021/11/11 00:58:56;;;;;;;40.43;26.10;;;;;;;;;;693723;28;809;-57
2021/11/11 00:59:17;;;;;;;42.23;26.27;;;;;;;;;;693773;28;840;-57
2021/11/11 00:59:40;;;;;;;42.40;26.07;;;;;;;;;;693795;28;1391;-57
2021/11/11 01:00:00;;;;;;;42.45;27.00;;;;;;;;;;693774;28;856;-58
2021/11/11 01:00:21;;;;;;;40.53;26.15;;;;;;;;;;693857;28;860;-57
2021/11/11 01:00:41;;;;;;;40.90;26.67;;;;;;;;;;693671;28;875;-58
2021/11/11 01:01:02;;;;;;;42.63;27.00;;;;;;;;;;693833;28;785;-57
2021/11/11 01:01:22;;;;;;;40.35;26.23;;;;;;;;;;693806;28;937;-58
2021/11/11 01:01:42;;;;;;;42.93;26.60;;;;;;;;;;693770;28;864;-59
2021/11/11 01:02:07;;;;;;;41.07;26.87;;;;;;;;;;693802;28;808;-57
2021/11/11 01:02:27;;;;;;;40.13;27.05;;;;;;;;;;693676;28;1277;-56
2021/11/11 01:02:49;;;;;;;41.75;27.13;;;;;;;;;;693325;28;777;-57
2021/11/11 01:03:09;;;;;;;40.63;26.98;;;;;;;;;;693674;28;953;-57
2021/11/11 01:03:35;;;;;;;41.55;26.75;;;;;;;;;;693776;28;963;-57
2021/11/11 01:03:56;;;;;;;42.03;27.25;;;;;;;;;;693870;28;863;-57
2021/11/11 01:04:16;;;;;;;40.83;26.45;;;;;;;;;;693811;28;1046;-56
2021/11/11 01:04:38;;;;;;;42.10;26.33;;;;;;;;;;693788;28;829;-58
2021/11/11 01:04:58;;;;;;;40.35;26.52;;;;;;;;;;693674;28;899;-56
2021/11/11 01:05:19;;;;;;;39.20;26.17;;;;;;;;;;693720;28;1037;-57
2021/11/11 01:05:39;;;;;;;39.63;26.33;;;;;;;;;;693745;28;824;-57
2021/11/11 01:05:59;;;;;;;39.88;26.23;;;;;;;;;;693798;28;1034;-57
2021/11/11 01:06:20;;;;;;;41.73;26.37;;;;;;;;;;692499;28;1393;-57
2021/11/11 01:06:40;;;;;;;42.08;26.05;;;;;;;;;;691172;28;828;-56
2021/11/11 01:07:00;;;;;;;39.77;26.07;;;;;;;;;;690949;28;1034;-57
2021/11/11 01:07:21;;;;;;;40.47;25.97;;;;;;;;;;692120;28;1405;-57
2021/11/11 01:07:41;;;;;;;39.40;25.45;;;;;;;;;;693755;28;878;-56
2021/11/11 01:08:02;;;;;;;38.77;26.33;;;;;;;;;;693792;28;1167;-57
2021/11/11 01:08:23;;;;;;;38.08;25.85;;;;;;;;;;693327;28;1358;-57
2021/11/11 01:08:43;;;;;;;40.55;25.95;;;;;;;;;;692426;28;1409;-57
2021/11/11 01:09:03;;;;;;;39.30;26.20;;;;;;;;;;693493;28;1456;-57
2021/11/11 01:09:23;;;;;;;41.07;26.63;;;;;;;;;;690919;28;847;-56
2021/11/11 01:09:44;;;;;;;40.17;26.37;;;;;;;;;;691043;28;1284;-57
2021/11/11 01:10:05;;;;;;;39.00;25.40;;;;;;;;;;691071;28;765;-57
2021/11/11 01:10:25;;;;;;;43.00;26.30;;;;;;;;;;690981;28;1417;-57
2021/11/11 01:10:45;;;;;;;43.23;26.20;;;;;;;;;;691140;28;871;-57
2021/11/11 01:11:05;;;;;;;42.93;27.43;;;;;;;;;;690836;28;1112;-57
2021/11/11 01:11:26;;;;;;;39.83;25.93;;;;;;;;;;691046;28;1021;-57
2021/11/11 01:11:46;;;;;;;41.17;26.07;;;;;;;;;;691088;28;868;-57
2021/11/11 01:12:07;;;;;;;41.40;26.27;;;;;;;;;;691045;28;947;-57
2021/11/11 01:12:27;;;;;;;41.15;26.65;;;;;;;;;;692970;28;1535;-57
2021/11/11 01:12:48;;;;;;;42.67;27.07;;;;;;;;;;693225;28;1017;-57
2021/11/11 01:13:08;;;;;;;42.35;26.70;;;;;;;;;;693610;28;999;-57
2021/11/11 01:13:28;;;;;;;41.60;26.53;;;;;;;;;;693774;28;808;-57
2021/11/11 01:13:48;;;;;;;42.93;26.40;;;;;;;;;;693721;28;927;-58
2021/11/11 01:14:09;;;;;;;42.47;26.10;;;;;;;;;;693795;28;860;-57
2021/11/11 01:14:29;;;;;;;39.78;26.02;;;;;;;;;;693764;28;1020;-58
2021/11/11 01:14:49;;;;;;;41.13;25.93;;;;;;;;;;693702;28;900;-58
2021/11/11 01:15:10;;;;;;;41.23;26.90;;;;;;;;;;693704;28;1082;-58
2021/11/11 01:15:32;;;;;;;39.55;26.88;;;;;;;;;;693662;28;1089;-58
2021/11/11 01:15:52;;;;;;;39.70;25.92;;;;;;;;;;693705;28;864;-58
2021/11/11 01:16:12;;;;;;;42.00;25.83;;;;;;;;;;693450;28;1489;-57
2021/11/11 01:16:33;;;;;;;41.37;25.90;;;;;;;;;;691029;28;1444;-58
2021/11/11 01:16:53;;;;;;;41.47;25.93;;;;;;;;;;690962;28;967;-58
2021/11/11 01:17:13;;;;;;;39.20;25.88;;;;;;;;;;691025;28;888;-58
2021/11/11 01:17:34;;;;;;;39.23;25.77;;;;;;;;;;690855;28;1030;-58
2021/11/11 01:17:54;;;;;;;40.85;26.15;;;;;;;;;;691033;28;1914;-58
2021/11/11 01:18:14;;;;;;;41.37;26.03;;;;;;;;;;690972;28;1088;-58
2021/11/11 01:18:34;;;;;;;41.17;26.17;;;;;;;;;;690978;28;996;-58
2021/11/11 01:18:55;;;;;;;40.08;25.95;;;;;;;;;;690979;28;978;-58
2021/11/11 01:19:15;;;;;;;41.87;26.87;;;;;;;;;;691677;28;1390;-57
2021/11/11 01:19:35;;;;;;;38.47;26.17;;;;;;;;;;693464;28;1324;-57
2021/11/11 01:19:56;;;;;;;38.53;25.73;;;;;;;;;;693842;28;903;-58
2021/11/11 01:20:17;;;;;;;39.33;26.10;;;;;;;;;;693779;28;891;-58
2021/11/11 01:20:37;;;;;;;41.45;26.55;;;;;;;;;;693666;28;941;-58
2021/11/11 01:20:58;;;;;;;38.55;25.77;;;;;;;;;;693752;28;955;-58
2021/11/11 01:21:18;;;;;;;38.80;25.77;;;;;;;;;;693766;28;943;-58
2021/11/11 01:21:39;;;;;;;40.20;26.20;;;;;;;;;;693635;28;907;-58
2021/11/11 01:21:59;;;;;;;39.08;26.45;;;;;;;;;;693807;28;907;-57
2021/11/11 01:22:19;;;;;;;41.87;26.57;;;;;;;;;;692471;28;1405;-58
2021/11/11 01:22:41;;;;;;;40.73;26.63;;;;;;;;;;690793;28;836;-58
2021/11/11 01:23:01;;;;;;;37.97;26.15;;;;;;;;;;690738;28;1207;-57
2021/11/11 01:23:22;;;;;;;39.80;26.53;;;;;;;;;;690929;28;837;-58
2021/11/11 01:23:42;;;;;;;41.20;26.47;;;;;;;;;;690913;28;1029;-58
2021/11/11 01:24:02;;;;;;;40.10;26.73;;;;;;;;;;691105;28;987;-58
2021/11/11 01:24:22;;;;;;;40.40;26.57;;;;;;;;;;690953;28;1010;-58
2021/11/11 01:24:42;;;;;;;40.10;26.67;;;;;;;;;;691002;28;983;-57
2021/11/11 01:25:05;;;;;;;40.63;26.63;;;;;;;;;;690928;28;891;-58
2021/11/11 01:25:27;;;;;;;39.83;26.70;;;;;;;;;;690930;28;1968;-58
2021/11/11 01:25:47;;;;;;;37.13;26.50;;;;;;;;;;690934;28;867;-58
2021/11/11 01:26:08;;;;;;;38.95;26.13;;;;;;;;;;690964;28;967;-57
2021/11/11 01:26:28;;;;;;;39.20;26.13;;;;;;;;;;691042;28;1021;-57
2021/11/11 01:26:48;;;;;;;40.40;25.90;;;;;;;;;;691043;28;983;-58
2021/11/11 01:27:08;;;;;;;39.20;25.73;;;;;;;;;;690918;28;872;-57
2021/11/11 01:27:28;;;;;;;39.83;26.40;;;;;;;;;;691019;28;929;-57
2021/11/11 01:27:48;;;;;;;38.80;25.67;;;;;;;;;;690988;28;923;-57
2021/11/11 01:28:09;;;;;;;41.50;26.50;;;;;;;;;;691035;28;931;-58
2021/11/11 01:28:29;;;;;;;40.90;26.40;;;;;;;;;;691032;28;885;-58
2021/11/11 01:28:49;;;;;;;39.10;26.48;;;;;;;;;;690957;28;1074;-57
2021/11/11 01:29:09;;;;;;;42.03;26.90;;;;;;;;;;690935;28;944;-57
2021/11/11 01:29:29;;;;;;;40.60;26.57;;;;;;;;;;692582;28;1405;-57
2021/11/11 01:29:50;;;;;;;42.20;26.23;;;;;;;;;;693601;28;809;-56
2021/11/11 01:30:11;;;;;;;41.63;26.27;;;;;;;;;;693777;28;1002;-56
2021/11/11 01:30:31;;;;;;;40.33;26.25;;;;;;;;;;693725;28;959;-57
2021/11/11 01:30:51;;;;;;;42.73;26.97;;;;;;;;;;693680;28;1004;-56
2021/11/11 01:31:11;;;;;;;43.20;26.67;;;;;;;;;;693814;28;860;-57
2021/11/11 01:31:31;;;;;;;42.53;26.80;;;;;;;;;;693939;28;861;-57
2021/11/11 01:31:52;;;;;;;40.93;26.60;;;;;;;;;;693756;28;828;-58
2021/11/11 01:32:12;;;;;;;42.23;27.03;;;;;;;;;;693828;28;923;-57
2021/11/11 01:32:32;;;;;;;42.73;26.97;;;;;;;;;;691282;28;1452;-57
2021/11/11 01:32:52;;;;;;;40.77;26.73;;;;;;;;;;690653;28;834;-57
2021/11/11 01:33:13;;;;;;;41.03;26.63;;;;;;;;;;691026;28;802;-57
2021/11/11 01:33:35;;;;;;;38.80;26.35;;;;;;;;;;691002;28;912;-57
2021/11/11 01:33:55;;;;;;;36.85;25.33;;;;;;;;;;690746;28;824;-57
2021/11/11 01:34:15;;;;;;;41.30;26.20;;;;;;;;;;690735;28;947;-57
2021/11/11 01:34:35;;;;;;;41.83;26.30;;;;;;;;;;690877;28;970;-58
2021/11/11 01:34:56;;;;;;;39.50;26.43;;;;;;;;;;690958;28;1503;-57
2021/11/11 01:35:16;;;;;;;39.63;25.92;;;;;;;;;;691054;28;612;-57
2021/11/11 01:35:37;;;;;;;39.07;26.17;;;;;;;;;;691039;28;940;-57
2021/11/11 01:35:57;;;;;;;41.83;26.60;;;;;;;;;;691090;28;837;-57
2021/11/11 01:36:17;;;;;;;41.87;26.33;;;;;;;;;;691306;28;1377;-56
2021/11/11 01:36:37;;;;;;;41.10;27.40;;;;;;;;;;693841;28;967;-57
2021/11/11 01:36:58;;;;;;;40.33;26.93;;;;;;;;;;693765;28;1015;-57
2021/11/11 01:37:18;;;;;;;40.23;26.53;;;;;;;;;;692421;28;1436;-58
2021/11/11 01:37:38;;;;;;;43.53;27.23;;;;;;;;;;691002;28;1926;-58
2021/11/11 01:37:58;;;;;;;40.73;26.27;;;;;;;;;;690996;28;995;-58
2021/11/11 01:38:19;;;;;;;40.70;26.63;;;;;;;;;;690947;28;1018;-57
2021/11/11 01:38:39;;;;;;;43.00;27.17;;;;;;;;;;691081;28;865;-57
2021/11/11 01:38:59;;;;;;;42.23;27.13;;;;;;;;;;690950;28;810;-57
2021/11/11 01:39:20;;;;;;;42.63;27.23;;;;;;;;;;690858;28;963;-57
2021/11/11 01:39:40;;;;;;;40.88;27.05;;;;;;;;;;690912;28;1320;-57
2021/11/11 01:40:00;;;;;;;44.43;27.77;;;;;;;;;;691067;28;824;-57
2021/11/11 01:40:20;;;;;;;41.33;28.17;;;;;;;;;;690589;28;1267;-57
2021/11/11 01:40:41;;;;;;;38.00;27.33;;;;;;;;;;690859;28;826;-56
2021/11/11 01:41:02;;;;;;;39.03;27.00;;;;;;;;;;690597;28;1082;-57
2021/11/11 01:41:22;;;;;;;38.20;26.75;;;;;;;;;;690768;28;833;-57
2021/11/11 01:41:43;;;;;;;39.27;27.30;;;;;;;;;;690778;28;1014;-57
2021/11/11 01:42:03;;;;;;;42.05;27.70;;;;;;;;;;690612;28;1023;-58
2021/11/11 01:42:23;;;;;;;39.87;27.90;;;;;;;;;;691568;28;1398;-58
2021/11/11 01:42:44;;;;;;;39.33;27.83;;;;;;;;;;693447;28;900;-58
2021/11/11 01:43:05;;;;;;;39.92;27.33;;;;;;;;;;693412;28;1554;-58
2021/11/11 01:43:25;;;;;;;42.13;27.38;;;;;;;;;;693715;28;1159;-57
2021/11/11 01:43:46;;;;;;;41.10;27.50;;;;;;;;;;693652;28;1091;-57
2021/11/11 01:44:06;;;;;;;40.23;27.40;;;;;;;;;;693603;28;880;-58
2021/11/11 01:44:26;;;;;;;44.23;28.43;;;;;;;;;;693663;28;995;-58
2021/11/11 01:44:48;;;;;;;40.03;28.13;;;;;;;;;;693647;28;926;-57
2021/11/11 01:45:08;;;;;;;39.92;27.95;;;;;;;;;;693649;28;895;-57
2021/11/11 01:45:29;;;;;;;43.47;28.33;;;;;;;;;;693624;28;970;-58
2021/11/11 01:45:49;;;;;;;43.15;28.42;;;;;;;;;;693608;28;1007;-58
2021/11/11 01:46:10;;;;;;;43.77;29.53;;;;;;;;;;693748;28;808;-57
2021/11/11 01:46:30;;;;;;;46.92;29.63;;;;;;;;;;691195;28;1385;-57
2021/11/11 01:46:50;;;;;;;44.53;29.83;;;;;;;;;;690877;28;849;-57
2021/11/11 01:47:10;;;;;;;48.00;30.07;;;;;;;;;;690935;28;845;-57
2021/11/11 01:47:30;;;;;;;45.87;29.73;;;;;;;;;;690877;28;995;-57
2021/11/11 01:47:51;;;;;;;44.47;29.67;;;;;;;;;;690901;28;781;-57
2021/11/11 01:48:12;;;;;;;44.43;29.67;;;;;;;;;;690975;28;823;-57
2021/11/11 01:48:32;;;;;;;43.10;29.70;;;;;;;;;;690842;28;1035;-57
2021/11/11 01:48:52;;;;;;;44.13;30.33;;;;;;;;;;691036;28;840;-57
2021/11/11 01:49:13;;;;;;;45.50;29.57;;;;;;;;;;690889;28;884;-58
2021/11/11 01:49:34;;;;;;;43.20;29.05;;;;;;;;;;690819;28;1305;-57
2021/11/11 01:49:54;;;;;;;43.50;29.17;;;;;;;;;;690985;28;931;-57
2021/11/11 01:50:14;;;;;;;43.70;29.70;;;;;;;;;;690986;28;797;-56
2021/11/11 01:50:34;;;;;;;42.95;28.98;;;;;;;;;;690827;28;1105;-57
2021/11/11 01:50:55;;;;;;;45.40;29.33;;;;;;;;;;690958;28;853;-57
2021/11/11 01:51:16;;;;;;;46.25;29.80;;;;;;;;;;690833;28;995;-56
2021/11/11 01:51:36;;;;;;;44.80;30.40;;;;;;;;;;690894;28;840;-58
2021/11/11 01:51:56;;;;;;;44.67;29.97;;;;;;;;;;692068;28;1433;-58
2021/11/11 01:52:18;;;;;;;44.53;30.07;;;;;;;;;;690896;28;861;-57
2021/11/11 01:52:39;;;;;;;44.55;29.55;;;;;;;;;;690870;28;869;-57
2021/11/11 01:52:59;;;;;;;45.58;29.30;;;;;;;;;;690673;28;814;-56
2021/11/11 01:53:20;;;;;;;43.00;29.83;;;;;;;;;;690777;28;963;-57
2021/11/11 01:53:40;;;;;;;42.90;30.27;;;;;;;;;;690988;28;1055;-58
2021/11/11 01:54:01;;;;;;;46.42;30.20;;;;;;;;;;690829;28;1114;-58
2021/11/11 01:54:21;;;;;;;47.63;30.10;;;;;;;;;;690907;28;801;-57
2021/11/11 01:54:41;;;;;;;45.23;30.43;;;;;;;;;;690977;28;928;-58
2021/11/11 01:55:01;;;;;;;47.10;31.07;;;;;;;;;;690846;28;838;-57
2021/11/11 01:55:22;;;;;;;44.03;30.13;;;;;;;;;;690758;28;983;-57
2021/11/11 01:55:43;;;;;;;43.10;29.90;;;;;;;;;;691025;28;852;-58
2021/11/11 01:56:03;;;;;;;43.35;29.42;;;;;;;;;;690877;28;909;-58
2021/11/11 01:56:24;;;;;;;44.27;29.43;;;;;;;;;;692003;28;1421;-58
2021/11/11 01:56:44;;;;;;;42.75;29.52;;;;;;;;;;693698;28;879;-58
2021/11/11 01:57:05;;;;;;;42.03;29.20;;;;;;;;;;693541;28;804;-56
2021/11/11 01:57:27;;;;;;;44.92;29.88;;;;;;;;;;693490;28;1128;-57
2021/11/11 01:57:47;;;;;;;46.55;29.48;;;;;;;;;;693647;28;1955;-57
2021/11/11 01:58:08;;;;;;;44.63;29.60;;;;;;;;;;693497;28;1515;-57
2021/11/11 01:58:28;;;;;;;44.47;29.40;;;;;;;;;;693665;28;816;-57
2021/11/11 01:58:48;;;;;;;41.97;29.20;;;;;;;;;;693547;28;975;-56
2021/11/11 01:59:09;;;;;;;43.60;29.50;;;;;;;;;;693586;28;940;-57
2021/11/11 01:59:29;;;;;;;43.95;29.90;;;;;;;;;;693476;28;1237;-58
2021/11/11 01:59:49;;;;;;;46.42;30.13;;;;;;;;;;693613;28;944;-57
2021/11/11 02:00:24;;;;;;;45.97;29.43;;;;;;;;;;693683;28;913;-57
2021/11/11 02:00:47;;;;;;;42.78;29.65;;;;;;;;;;693547;28;983;-57
2021/11/11 02:01:07;;;;;;;44.55;29.30;;;;;;;;;;693564;28;903;-58
2021/11/11 02:01:27;;;;;;;44.63;29.73;;;;;;;;;;693587;28;915;-57
2021/11/11 02:01:47;;;;;;;43.10;29.90;;;;;;;;;;693424;28;1448;-57
2021/11/11 02:02:07;;;;;;;43.60;29.87;;;;;;;;;;691221;28;1456;-57
2021/11/11 02:02:29;;;;;;;43.70;28.97;;;;;;;;;;690941;28;832;-57
2021/11/11 02:02:53;;;;;;;46.47;29.60;;;;;;;;;;690434;28;845;-57
2021/11/11 02:03:14;;;;;;;42.08;29.10;;;;;;;;;;690798;28;853;-57
2021/11/11 02:03:34;;;;;;;42.20;29.10;;;;;;;;;;690771;28;992;-58
2021/11/11 02:03:54;;;;;;;43.93;29.67;;;;;;;;;;690984;28;793;-57
2021/11/11 02:04:15;;;;;;;45.47;29.47;;;;;;;;;;690962;28;866;-57
2021/11/11 02:04:35;;;;;;;45.53;30.17;;;;;;;;;;690775;28;999;-57